Latest Weather Observations for Coldstream

IDV60901

Issued at 11:11 pm EST Sunday 27 September 2020 (issued every 10 minutes, with the page automatically refreshed every 10 minutes)

About weather observations | Map of Melbourne area stations | Latest observations for Melbourne area | Other Formats
Station Details ID: 086383 Name: COLDSTREAM Lat: -37.72 Lon: 145.41 Height: 83.0 m
Data from the previous 72 hours. | See also: Recent months at Coldstream
Date/Time
EST
Temp
°C
App
Temp
°C
Dew
Point
°C
Rel
Hum
%
Delta-T
°C
Wind Press
QNH
hPa
Press
MSL
hPa
Rain since
9am
mm
Dir  Spd
km/h
Gust
km/h
Spd
kts
Gust
kts
27/11:00pm 3.1 1.6 3.0 99 0.0 CALM 0 0 0 0 1028.5 1028.6 0.0
27/10:30pm 3.3 1.8 3.2 99 0.0 CALM 0 0 0 0 1028.4 1028.4 0.0
27/10:00pm 3.5 1.7 3.4 99 0.0 S 2 9 1 5 1028.4 1028.4 0.0
27/09:30pm 4.2 2.5 3.8 97 0.2 S 2 7 1 4 1028.5 1028.6 0.0
27/09:00pm 4.7 2.2 4.6 99 0.0 S 7 9 4 5 1028.4 1028.4 0.0
27/08:30pm 4.9 3.7 4.6 98 0.1 CALM 0 0 0 0 1028.2 1028.2 0.0
27/08:00pm 4.9 3.7 4.6 98 0.1 CALM 0 0 0 0 1028.0 1028.0 0.0
27/07:30pm 5.1 3.8 4.1 93 0.4 CALM 0 0 0 0 1027.8 1027.8 0.0
27/07:00pm 7.2 6.0 4.7 84 1.1 CALM 0 6 0 3 1027.6 1027.6 0.0
27/06:30pm 9.0 6.4 4.0 71 2.2 SSE 7 11 4 6 1027.3 1027.3 0.0
27/06:00pm 10.3 7.1 3.3 62 3.0 S 9 17 5 9 1026.9 1026.9 0.0
27/05:30pm 11.1 8.1 3.9 61 3.2 S 9 15 5 8 1026.3 1026.4 0.0
27/05:00pm 11.8 8.7 3.6 57 3.6 S 9 20 5 11 1026.0 1026.1 0.0
27/04:30pm 12.1 8.3 4.1 58 3.6 SSE 13 22 7 12 1025.6 1025.7 0.0
27/04:00pm 13.6 9.8 3.9 52 4.4 SSW 13 22 7 12 1025.4 1025.5 0.0
27/03:30pm 12.3 8.8 3.3 54 4.0 S 11 15 6 8 1025.5 1025.6 0.0
27/03:00pm 12.8 9.3 3.5 53 4.1 SSE 11 17 6 9 1025.4 1025.5 0.0
27/02:30pm 14.0 9.9 2.3 45 5.2 WSW 13 20 7 11 1025.2 1025.3 0.0
27/02:00pm 13.7 11.0 3.5 50 4.6 SW 7 17 4 9 1025.2 1025.3 0.0
27/01:30pm 13.0 10.1 2.8 50 4.5 SSE 7 13 4 7 1025.4 1025.5 0.0
27/01:00pm 13.9 10.1 3.7 50 4.6 ESE 13 19 7 10 1025.5 1025.6 0.0
27/12:30pm 11.8 8.1 2.5 53 4.0 SSE 11 19 6 10 1025.9 1026.0 0.0
27/12:00pm 12.2 8.6 4.9 61 3.3 SE 13 20 7 11 1025.8 1025.9 0.0
27/11:30am 12.0 8.0 3.0 54 4.0 SSW 13 22 7 12 1025.8 1025.9 0.0
27/11:00am 12.2 8.6 3.2 54 4.0 SSE 11 20 6 11 1025.7 1025.8 0.0
27/10:30am 10.6 7.4 3.2 60 3.2 S 9 19 5 10 1025.9 1026.0 0.0
27/10:00am 10.8 7.3 3.4 60 3.2 SSW 11 19 6 10 1025.7 1025.8 0.0
27/09:30am 11.1 8.1 4.3 63 3.1 SW 9 17 5 9 1025.5 1025.6 0.0
27/09:00am 10.2 6.5 4.4 67 2.6 SW 13 19 7 10 1025.3 1025.4 7.4
27/08:30am 10.0 7.4 6.0 76 1.9 SW 9 15 5 8 1024.8 1024.9 7.4
27/08:00am 8.8 6.6 5.2 78 1.6 SSW 6 11 3 6 1024.5 1024.6 7.4
27/07:30am 7.2 4.8 7.1 99 0.0 S 9 15 5 8 1024.3 1024.4 7.4
27/07:00am 5.5 3.7 5.5 100 0.0 S 4 7 2 4 1023.5 1023.6 7.4
27/06:30am 5.1 4.0 5.0 99 0.0 CALM 0 0 0 0 1022.8 1022.9 7.4
27/06:00am 4.8 3.6 4.7 99 0.0 CALM 0 0 0 0 1022.3 1022.4 7.4
27/05:30am 5.7 4.7 5.6 99 0.0 CALM 0 0 0 0 1021.8 1021.9 7.4
27/05:00am 7.3 6.7 7.2 99 0.0 CALM 0 0 0 0 1021.3 1021.4 7.4
27/04:30am 7.8 7.3 7.7 99 0.0 CALM 0 0 0 0 1020.9 1021.0 7.4
27/04:00am 7.9 6.3 7.8 99 0.0 SW 6 13 3 7 1020.4 1020.5 7.4
27/03:30am 8.1 7.3 8.0 99 0.0 SW 2 7 1 4 1020.0 1020.1 7.4
27/03:00am 8.2 6.4 8.1 99 0.0 WSW 7 9 4 5 1019.8 1019.9 7.4
27/02:30am 8.3 6.2 8.2 99 0.0 SSW 9 13 5 7 1019.5 1019.6 7.2
27/02:00am 8.4 6.3 8.3 99 0.0 W 9 13 5 7 1019.3 1019.4 5.6
27/01:30am 8.4 6.3 8.3 99 0.0 W 9 13 5 7 1019.3 1019.4 4.4
27/01:00am 8.9 5.2 8.0 94 0.4 W 17 24 9 13 1019.3 1019.4 3.4
27/12:30am 9.0 6.0 7.8 92 0.6 WNW 13 20 7 11 1019.1 1019.2 3.4
27/12:00am 8.8 6.9 7.4 91 0.7 WNW 7 13 4 7 1018.9 1019.0 3.4
 
Date/Time
EST
Temp
°C
App
Temp
°C
Dew
Point
°C
Rel
Hum
%
Delta-T
°C
Wind Press
QNH
hPa
Press
MSL
hPa
Rain since
9am
mm
Dir  Spd
km/h
Gust
km/h
Spd
kts
Gust
kts
26/11:30pm 9.3 6.7 7.7 90 0.8 W 11 17 6 9 1018.8 1018.9 3.4
26/11:00pm 9.2 6.6 7.8 91 0.7 W 11 17 6 9 1018.7 1018.8 3.4
26/10:30pm 9.2 6.6 7.6 90 0.8 WNW 11 19 6 10 1018.7 1018.8 3.4
26/10:00pm 9.2 6.9 7.6 90 0.8 WNW 9 15 5 8 1018.7 1018.8 3.4
26/09:30pm 9.1 6.8 7.5 90 0.8 WNW 9 15 5 8 1018.7 1018.8 3.4
26/09:00pm 8.9 6.6 7.5 91 0.7 WNW 9 17 5 9 1018.6 1018.7 3.4
26/08:30pm 9.1 6.9 7.7 91 0.7 NW 9 17 5 9 1018.3 1018.3 3.4
26/08:00pm 8.8 7.1 8.4 97 0.2 NW 7 9 4 5 1018.0 1018.0 3.4
26/07:30pm 8.7 6.6 8.4 98 0.1 NW 9 19 5 10 1017.5 1017.5 3.2
26/07:00pm 8.9 6.8 8.1 95 0.4 WSW 9 19 5 10 1017.0 1017.0 3.0
26/06:30pm 9.1 6.2 8.3 95 0.4 SW 13 22 7 12 1016.8 1016.8 3.0
26/06:00pm 10.1 8.0 6.6 79 1.6 W 7 11 4 6 1016.0 1016.0 1.8
26/05:30pm 10.8 7.5 6.2 73 2.2 WNW 13 19 7 10 1015.5 1015.5 1.8
26/05:00pm 11.4 8.0 6.1 70 2.5 WNW 13 20 7 11 1015.0 1015.0 1.8
26/04:30pm 11.5 9.1 7.0 74 2.2 WNW 9 13 5 7 1014.8 1014.8 1.8
26/04:00pm 11.7 8.5 6.8 72 2.3 W 13 22 7 12 1014.8 1014.8 1.8
26/03:30pm 10.4 5.0 6.5 77 1.8 WSW 24 43 13 23 1014.7 1014.7 1.8
26/03:00pm 13.3 9.9 5.7 60 3.6 SW 13 24 7 13 1014.3 1014.3 1.6
26/02:30pm 12.7 9.3 5.8 63 3.3 SSW 13 22 7 12 1014.4 1014.4 1.6
26/02:00pm 10.9 6.6 5.2 68 2.6 SW 17 26 9 14 1014.5 1014.5 1.6
26/01:30pm 11.5 7.0 7.0 74 2.2 WSW 20 35 11 19 1014.7 1014.7 1.6
26/01:00pm 9.8 7.1 7.4 85 1.1 SSW 11 17 6 9 1014.7 1014.7 1.6
26/12:30pm 10.5 6.3 5.5 71 2.3 SW 17 32 9 17 1014.6 1014.6 1.0
26/12:00pm 11.8 6.5 5.2 64 3.0 SW 22 33 12 18 1014.5 1014.5 1.0
26/11:30am 10.7 5.1 7.2 79 1.7 WSW 26 33 14 18 1014.4 1014.4 1.0
26/11:00am 11.3 6.6 6.0 70 2.5 SW 20 33 11 18 1014.1 1014.1 0.8
26/10:30am 10.3 7.0 7.9 85 1.2 SW 15 22 8 12 1014.2 1014.2 0.8
26/10:00am 10.1 4.9 7.2 82 1.4 WSW 24 35 13 19 1013.9 1014.0 0.4
26/09:30am 9.1 5.6 8.8 98 0.1 WSW 17 32 9 17 1013.6 1013.7 0.4
26/09:00am 7.8 3.3 6.9 94 0.4 W 20 43 11 23 1013.2 1013.3 27.6
26/08:30am 8.0 4.4 6.9 93 0.5 SW 15 26 8 14 1012.7 1012.8 26.8
26/08:00am 7.8 4.4 7.7 99 0.0 SW 15 35 8 19 1011.7 1011.8 26.4
26/07:30am 8.1 4.4 8.0 99 0.0 SW 17 37 9 20 1011.0 1011.1 25.2
26/07:00am 8.2 4.2 8.1 99 0.0 WSW 19 30 10 16 1010.2 1010.3 23.2
26/06:30am 8.0 4.3 7.9 99 0.0 SSW 17 26 9 14 1009.2 1009.3 22.0
26/06:00am 6.6 3.7 6.6 100 0.0 W 11 24 6 13 1008.4 1008.5 21.6
26/05:30am 6.5 4.4 6.5 100 0.0 W 7 13 4 7 1008.0 1008.0 20.6
26/05:00am 6.2 4.0 6.2 100 0.0 NNW 7 11 4 6 1007.4 1007.4 19.4
26/04:30am 6.0 4.3 5.9 99 0.0 W 4 7 2 4 1007.0 1007.0 16.8
26/04:00am 5.7 3.6 5.6 99 0.0 N 6 13 3 7 1006.7 1006.7 13.4
26/03:30am 5.5 3.1 5.4 99 0.0 NW 7 13 4 7 1006.6 1006.6 12.8
26/03:00am 5.4 2.2 5.1 98 0.1 NW 11 15 6 8 1006.6 1006.6 12.4
26/02:30am 4.7 3.1 4.6 99 0.0 NNE 2 7 1 4 1006.8 1006.8 12.2
26/02:00am 3.6 1.1 3.5 99 0.0 NNE 6 7 3 4 1007.0 1007.0 12.2
26/01:30am 3.6 1.4 3.5 99 0.0 N 4 7 2 4 1007.1 1007.1 12.2
26/01:00am 2.3 0.3 2.2 99 0.0 NNE 2 7 1 4 1007.1 1007.1 12.2
26/12:30am 2.9 0.2 2.8 99 0.0 N 6 9 3 5 1006.9 1006.9 12.2
26/12:00am 3.7 1.2 3.7 100 0.0 NNW 6 9 3 5 1007.0 1007.0 12.2
 
Date/Time
EST
Temp
°C
App
Temp
°C
Dew
Point
°C
Rel
Hum
%
Delta-T
°C
Wind Press
QNH
hPa
Press
MSL
hPa
Rain since
9am
mm
Dir  Spd
km/h
Gust
km/h
Spd
kts
Gust
kts
25/11:30pm 2.8 0.9 2.7 99 0.0 SSE 2 7 1 4 1007.0 1007.0 12.2
25/11:00pm 2.2 0.5 2.1 99 0.0 CALM 0 0 0 0 1007.0 1007.0 12.2
25/10:30pm 2.9 1.4 2.8 99 0.0 CALM 0 0 0 0 1006.9 1006.9 12.2
25/10:00pm 3.7 2.3 3.6 99 0.0 CALM 0 0 0 0 1006.8 1006.8 12.2
25/09:30pm 5.0 3.9 4.9 99 0.0 CALM 0 2 0 1 1006.6 1006.6 12.2
25/09:00pm 4.5 3.3 4.4 99 0.0 CALM 0 0 0 0 1006.4 1006.4 12.0
25/08:30pm 4.6 3.4 4.5 99 0.0 CALM 0 0 0 0 1006.3 1006.3 12.0
25/08:00pm 5.0 3.1 4.9 99 0.0 NE 4 9 2 5 1005.9 1005.9 12.0
25/07:30pm 5.0 2.1 4.9 99 0.0 E 9 11 5 6 1005.4 1005.4 11.8
25/07:00pm 4.9 3.0 4.8 99 0.0 NE 4 11 2 6 1005.1 1005.1 11.8
25/06:30pm 5.0 2.7 4.9 99 0.0 NNE 6 11 3 6 1004.6 1004.6 11.8
25/06:00pm 5.2 2.4 5.1 99 0.0 ESE 9 15 5 8 1004.0 1004.0 11.8
25/05:30pm 5.0 0.1 4.9 99 0.0 WSW 20 35 11 19 1004.2 1004.2 10.6
25/05:00pm 5.4 0.7 5.3 99 0.0 W 19 28 10 15 1003.5 1003.5 7.2
25/04:30pm 6.3 0.8 5.7 96 0.3 W 24 33 13 18 1002.8 1002.8 6.4
25/04:00pm 7.4 1.8 5.4 87 0.9 WSW 24 35 13 19 1002.0 1002.0 6.2
25/03:30pm 7.4 2.7 6.2 92 0.5 WSW 20 32 11 17 1001.4 1001.5 6.2
25/03:00pm 7.3 2.4 7.0 98 0.1 WSW 22 30 12 16 1001.1 1001.2 6.0
25/02:30pm 8.5 3.1 6.3 86 1.0 W 24 43 13 23 1000.6 1000.7 2.8
25/02:00pm 8.8 4.0 5.5 80 1.5 WSW 20 32 11 17 1000.4 1000.5 2.6
25/01:30pm 10.5 7.4 7.4 81 1.5 ENE 13 17 7 9 1000.3 1000.4 2.2
25/01:00pm 9.2 7.7 6.6 84 1.2 ESE 4 7 2 4 1000.8 1000.9 2.2
25/12:30pm 9.5 7.5 7.1 85 1.1 NNE 7 11 4 6 1001.2 1001.3 2.2
25/12:00pm 8.4 6.6 7.0 91 0.7 NNW 6 11 3 6 1001.5 1001.6 2.2
25/11:30am 7.6 4.7 6.5 93 0.5 NW 11 15 6 8 1001.7 1001.7 2.0
25/11:00am 8.5 4.9 6.8 89 0.8 WSW 15 20 8 11 1001.8 1001.8 1.8
25/10:30am 8.2 4.7 7.0 92 0.6 W 15 20 8 11 1002.0 1002.0 1.8
25/10:00am 7.8 5.9 7.7 99 0.0 WNW 7 11 4 6 1002.1 1002.1 1.8
25/09:30am 8.1 4.5 6.6 90 0.7 NNW 15 32 8 17 1002.1 1002.1 0.6
25/09:00am 9.6 7.0 7.7 88 0.9 N 11 19 6 10 1002.0 1002.0 6.2
25/08:30am 8.3 6.3 6.9 91 0.7 NE 7 11 4 6 1002.0 1002.0 6.2
25/08:00am 7.4 5.6 7.1 98 0.1 NE 6 9 3 5 1002.3 1002.3 6.2
25/07:30am 6.5 5.3 6.4 99 0.0 NNE 2 9 1 5 1002.4 1002.4 6.2
25/07:00am 6.0 3.9 5.9 99 0.0 ENE 6 9 3 5 1002.3 1002.3 6.0
25/06:30am 6.0 3.7 5.7 98 0.1 ENE 7 15 4 8 1002.3 1002.3 5.2
25/06:00am 6.4 3.9 4.9 90 0.7 ENE 7 11 4 6 1002.3 1002.3 4.4
25/05:30am 6.4 3.5 4.7 89 0.7 ENE 9 17 5 9 1002.2 1002.2 4.2
25/05:00am 6.4 5.3 5.0 91 0.6 CALM 0 7 0 4 1002.2 1002.2 4.2
25/04:30am 6.5 4.3 5.3 92 0.5 NNE 6 9 3 5 1002.7 1002.7 4.2
25/04:00am 6.5 3.7 5.1 91 0.6 NNE 9 19 5 10 1002.9 1002.9 4.0
25/03:30am 6.3 3.6 5.6 95 0.3 NE 9 17 5 9 1003.6 1003.6 4.0
25/03:00am 6.4 3.0 6.0 97 0.2 NNE 13 20 7 11 1003.8 1003.8 4.0
25/02:30am 6.9 4.4 6.5 97 0.2 N 9 17 5 9 1004.7 1004.7 3.4
25/02:00am 7.2 4.8 6.9 98 0.1 N 9 15 5 8 1005.3 1005.3 2.6
25/01:30am 7.7 4.4 6.5 92 0.6 NNW 13 24 7 13 1005.8 1005.8 1.8
25/01:00am 8.5 4.4 6.1 85 1.1 NNW 17 28 9 15 1006.0 1006.0 1.2
25/12:30am 9.9 6.2 4.7 70 2.3 N 13 28 7 15 1006.0 1006.0 1.0
25/12:00am 10.3 5.8 4.0 65 2.8 N 17 28 9 15 1006.1 1006.1 1.0
 
Date/Time
EST
Temp
°C
App
Temp
°C
Dew
Point
°C
Rel
Hum
%
Delta-T
°C
Wind Press
QNH
hPa
Press
MSL
hPa
Rain since
9am
mm
Dir  Spd
km/h
Gust
km/h
Spd
kts
Gust
kts
24/11:30pm 10.6 5.6 3.6 62 3.1 NNE 19 30 10 16 1006.5 1006.5 1.0

Latest Capital City Observations: Canberra | Sydney | Melbourne | Brisbane | Adelaide | Perth | Hobart | Darwin

Other formats

Comma delimited format used in spreadsheet applications
http://www.bom.gov.au/fwo/IDV60901/IDV60901.94864.axf

JavaScript Object Notation format (JSON) in row-major order
http://www.bom.gov.au/fwo/IDV60901/IDV60901.94864.json

Data quality

Most of these data are generated automatically and are frequently updated. Quality checks on data are not normally performed. It is possible for incorrect values to appear. Refer to information at About Latest Weather Observations and please check the disclaimer before using these data.